createdAt,value
2023-01-03T00:00:24.919Z,50.866676
2023-01-03T00:01:24.889Z,50.866653
2023-01-03T00:02:24.921Z,50.866688
2023-01-03T00:03:24.875Z,50.866684
2023-01-03T00:04:27.607Z,50.866665
2023-01-03T00:05:24.846Z,50.866676
2023-01-03T00:06:24.857Z,50.866653
2023-01-03T00:07:24.868Z,50.866657
2023-01-03T00:08:24.821Z,50.866631
2023-01-03T00:09:24.853Z,50.866661
2023-01-03T00:10:24.831Z,50.866665
2023-01-03T00:11:24.801Z,50.866684
2023-01-03T00:12:30.443Z,50.866604
2023-01-03T00:13:26.778Z,50.866627
2023-01-03T00:14:24.791Z,50.866707
2023-01-03T00:15:24.768Z,50.866669
2023-01-03T00:16:24.787Z,50.866646
2023-01-03T00:17:24.814Z,50.866585
2023-01-03T00:18:24.752Z,50.866669
2023-01-03T00:19:24.745Z,50.866581
2023-01-03T00:20:24.755Z,50.866665
2023-01-03T00:21:24.714Z,50.866665
2023-01-03T00:22:24.726Z,50.866653
2023-01-03T00:23:24.718Z,50.866737
2023-01-03T00:24:24.699Z,50.866695
2023-01-03T00:25:24.684Z,50.866711
2023-01-03T00:38:06.711Z,50.866760
2023-01-03T00:39:05.911Z,50.866711
2023-01-03T00:40:05.860Z,50.866722
2023-01-03T00:41:05.862Z,50.866726
2023-01-03T00:42:05.843Z,50.866703
2023-01-03T21:33:12.570Z,50.867577
2023-01-03T21:34:12.553Z,50.867577
2023-01-03T21:35:12.537Z,50.867577
2023-01-03T21:36:15.233Z,50.866947
2023-01-03T21:37:13.521Z,50.866707
2023-01-03T21:38:12.563Z,50.866840
2023-01-03T21:39:12.512Z,50.866787
2023-01-03T21:40:12.521Z,50.866760
2023-01-03T21:41:12.500Z,50.866684
2023-01-03T21:42:12.492Z,50.866673
2023-01-03T21:43:12.496Z,50.866726
2023-01-03T21:44:12.479Z,50.866676
2023-01-03T21:45:12.506Z,50.866703
2023-01-03T21:46:12.686Z,50.866692
2023-01-03T21:47:12.457Z,50.866688
2023-01-03T21:48:12.464Z,50.866711
2023-01-03T21:49:13.021Z,50.866707
2023-01-03T21:50:12.464Z,50.866695
2023-01-03T21:51:12.420Z,50.866722
2023-01-03T21:52:12.428Z,50.866661
2023-01-03T21:53:12.427Z,50.866638
2023-01-03T21:54:12.536Z,50.866676
2023-01-03T21:55:12.384Z,50.866657
2023-01-03T21:56:12.375Z,50.866673
2023-01-03T21:57:15.206Z,50.866711
2023-01-03T21:58:13.372Z,50.866688
2023-01-03T21:59:12.550Z,50.866676
2023-01-03T22:00:12.360Z,50.866680
2023-01-03T22:01:12.462Z,50.866619
2023-01-03T22:02:12.488Z,50.866631
2023-01-03T22:03:12.425Z,50.866615
2023-01-03T22:04:12.346Z,50.866619
2023-01-03T22:05:12.310Z,50.866623
2023-01-03T22:06:12.661Z,50.866814
2023-01-03T22:07:12.293Z,50.866703
2023-01-03T22:08:12.299Z,50.866680
2023-01-03T22:09:12.296Z,50.866657
2023-01-03T22:10:12.434Z,50.866604
2023-01-03T22:11:12.274Z,50.866650
2023-01-03T22:12:15.318Z,50.866528
2023-01-03T22:13:12.255Z,50.866505
2023-01-03T22:14:12.247Z,50.866684
2023-01-03T22:15:12.717Z,50.866703
2023-01-03T22:16:12.223Z,50.866699
2023-01-03T22:17:12.211Z,50.866699
2023-01-03T22:18:12.203Z,50.866627
2023-01-03T22:19:12.196Z,50.866699
2023-01-03T22:20:12.183Z,50.866676
2023-01-03T22:21:13.180Z,50.866631
2023-01-03T22:22:12.214Z,50.866608
2023-01-03T22:23:12.164Z,50.866711
2023-01-03T22:24:12.178Z,50.866760
2023-01-03T22:25:12.172Z,50.866772
2023-01-03T22:26:12.133Z,50.866699
2023-01-03T22:27:12.124Z,50.866718
2023-01-03T22:28:12.105Z,50.866718
2023-01-03T22:29:12.114Z,50.866673
2023-01-03T22:30:12.107Z,50.866753
2023-01-03T22:31:12.088Z,50.866737
2023-01-03T22:32:12.124Z,50.866741
2023-01-03T22:33:12.088Z,50.866669
2023-01-03T22:34:12.063Z,50.866703
2023-01-03T22:35:12.055Z,50.866730
2023-01-03T22:36:12.052Z,50.866737
2023-01-03T22:37:12.038Z,50.866722
2023-01-03T22:38:12.036Z,50.866714
2023-01-03T22:39:12.020Z,50.866692
2023-01-03T22:40:12.052Z,50.866737
2023-01-03T22:41:12.017Z,50.866722
2023-01-03T22:42:17.702Z,50.866711
2023-01-03T22:43:14.002Z,50.866600
2023-01-03T22:44:11.989Z,50.866554
2023-01-03T22:45:12.665Z,50.866665
2023-01-03T22:46:12.758Z,50.866653
2023-01-03T22:47:11.962Z,50.866615
2023-01-03T22:48:12.591Z,50.866741
2023-01-03T22:49:11.973Z,50.866779
2023-01-03T22:50:11.946Z,50.866722
2023-01-03T22:51:11.976Z,50.866638
2023-01-03T22:52:11.916Z,50.866695
2023-01-03T22:53:11.916Z,50.866791
2023-01-03T22:54:11.902Z,50.866699
2023-01-03T22:55:11.923Z,50.866802
2023-01-03T22:56:11.894Z,50.866734
2023-01-03T22:57:11.901Z,50.866745
2023-01-03T22:58:11.874Z,50.866699
2023-01-03T22:59:11.866Z,50.866558
2023-01-03T23:00:11.855Z,50.866657
2023-01-03T23:01:11.933Z,50.866619
2023-01-03T23:02:11.997Z,50.866875
2023-01-03T23:03:11.849Z,50.866901
2023-01-03T23:04:11.931Z,50.866760
2023-01-03T23:05:11.823Z,50.866760
2023-01-03T23:06:11.813Z,50.866699
2023-01-03T23:07:11.812Z,50.866734
2023-01-03T23:08:11.796Z,50.866871
2023-01-03T23:09:11.793Z,50.866776
2023-01-03T23:10:11.796Z,50.866947
2023-01-03T23:11:11.766Z,50.866970
2023-01-03T23:12:11.836Z,50.866699
2023-01-03T23:13:11.744Z,50.866623
2023-01-03T23:14:11.775Z,50.866737
2023-01-03T23:15:11.740Z,50.866684
2023-01-03T23:16:11.787Z,50.866657
2023-01-03T23:17:11.797Z,50.866707
2023-01-03T23:18:11.725Z,50.866650
2023-01-03T23:19:11.734Z,50.866714
2023-01-03T23:20:11.695Z,50.866680
2023-01-03T23:21:11.691Z,50.866699
2023-01-03T23:22:11.690Z,50.866692
2023-01-03T23:23:11.664Z,50.866688
2023-01-03T23:24:11.658Z,50.866718
2023-01-03T23:25:11.674Z,50.866707
2023-01-03T23:26:11.638Z,50.866776
2023-01-03T23:27:11.635Z,50.866699
2023-01-03T23:28:12.588Z,50.866718
2023-01-03T23:29:11.636Z,50.866760
2023-01-03T23:30:11.623Z,50.866730
2023-01-03T23:31:11.662Z,50.866718
2023-01-03T23:32:11.603Z,50.866711
2023-01-03T23:33:11.586Z,50.866669
2023-01-03T23:34:11.599Z,50.866688
2023-01-03T23:35:11.568Z,50.866772
2023-01-03T23:36:11.566Z,50.866734
2023-01-03T23:37:11.555Z,50.866695
2023-01-03T23:38:11.542Z,50.866718
2023-01-03T23:39:11.535Z,50.866760
2023-01-03T23:40:11.528Z,50.866737
2023-01-03T23:41:11.528Z,50.866772
2023-01-03T23:42:11.516Z,50.866730
2023-01-03T23:43:11.496Z,50.866734
2023-01-03T23:44:11.494Z,50.866707
2023-01-03T23:45:11.518Z,50.866722
2023-01-03T23:46:11.747Z,50.866722
2023-01-03T23:47:12.792Z,50.866764
2023-01-03T23:48:12.465Z,50.866814
2023-01-03T23:49:11.459Z,50.866768
2023-01-03T23:50:11.446Z,50.866779
2023-01-03T23:51:11.460Z,50.866844
2023-01-03T23:52:11.456Z,50.866856
2023-01-03T23:53:11.457Z,50.866844
2023-01-03T23:54:11.425Z,50.866776
2023-01-03T23:55:12.840Z,50.866802
2023-01-03T23:56:12.418Z,50.866764
2023-01-03T23:57:11.466Z,50.866741
2023-01-03T23:58:11.395Z,50.866734
2023-01-03T23:59:11.375Z,50.866688
